createdAt,value
2022-12-11T00:00:08.915Z,99.3
2022-12-11T00:01:08.931Z,99.1
2022-12-11T00:02:08.963Z,98.9
2022-12-11T00:03:14.139Z,99.4
2022-12-11T00:06:08.917Z,99.4
2022-12-11T00:07:08.920Z,99.2
2022-12-11T00:08:08.949Z,98.6
2022-12-11T00:11:08.927Z,98.3
2022-12-11T00:13:08.944Z,98.3
2022-12-11T00:14:08.913Z,99.4
2022-12-11T00:16:08.951Z,99.9
2022-12-11T00:17:09.026Z,99.2
2022-12-11T00:18:08.920Z,98.9
2022-12-11T00:19:01.925Z,99.4
2022-12-11T00:20:08.927Z,99.4
2022-12-11T00:21:08.906Z,99.3
2022-12-11T00:22:08.908Z,99.6
2022-12-11T00:23:08.912Z,99.3
2022-12-11T00:24:08.911Z,99.4
2022-12-11T00:26:08.920Z,99
2022-12-11T00:27:08.919Z,98.3
2022-12-11T00:28:08.920Z,97.9
2022-12-11T00:29:08.918Z,97.7
2022-12-11T00:31:08.917Z,98.4
2022-12-11T00:34:08.918Z,98.5
2022-12-11T00:35:09.225Z,98.7
2022-12-11T00:36:08.912Z,98.3
2022-12-11T00:37:09.073Z,97.9
2022-12-11T00:38:08.912Z,98
2022-12-11T00:39:08.910Z,98.1
2022-12-11T00:40:08.916Z,98.3
2022-12-11T00:41:08.914Z,98.3
2022-12-11T00:42:08.922Z,98.3
2022-12-11T00:44:08.916Z,98.4
2022-12-11T00:46:08.967Z,98.2
2022-12-11T00:47:08.915Z,98.3
2022-12-11T00:48:08.954Z,98.2
2022-12-11T00:50:08.909Z,98.3
2022-12-11T00:52:08.916Z,98.4
2022-12-11T00:53:08.915Z,98.7
2022-12-11T00:54:08.972Z,99.2
2022-12-11T00:56:08.911Z,99.8
2022-12-11T00:57:08.912Z,99.7
2022-12-11T00:58:09.020Z,100
2022-12-11T00:59:08.933Z,100
2022-12-11T01:01:08.965Z,100
2022-12-11T01:02:08.909Z,100
2022-12-11T01:03:08.965Z,100
2022-12-11T01:05:09.241Z,99.4
2022-12-11T01:06:08.915Z,99
2022-12-11T01:07:08.910Z,98.9
2022-12-11T01:08:09.035Z,98.9
2022-12-11T01:10:08.943Z,99.2
2022-12-11T01:11:08.906Z,98.9
2022-12-11T01:13:08.916Z,98.5
2022-12-11T01:14:08.914Z,98.5
2022-12-11T01:15:09.180Z,98.7
2022-12-11T01:17:08.906Z,99.1
2022-12-11T01:19:08.929Z,98.5
2022-12-11T01:22:08.903Z,98.3
2022-12-11T01:23:08.916Z,98.4
2022-12-11T01:24:08.971Z,98.1
2022-12-11T01:26:08.933Z,97.2
2022-12-11T01:27:08.905Z,97.5
2022-12-11T01:29:08.940Z,96.9
2022-12-11T01:30:08.903Z,96.7
2022-12-11T01:31:08.978Z,96.7
2022-12-11T01:32:08.908Z,96.4
2022-12-11T01:34:08.905Z,96.6
2022-12-11T01:35:09.376Z,96.9
2022-12-11T01:36:08.913Z,96.6
2022-12-11T01:37:08.900Z,96.2
2022-12-11T01:39:08.910Z,95.7
2022-12-11T01:40:08.905Z,95.6
2022-12-11T01:41:08.938Z,95.8
2022-12-11T01:43:08.905Z,95.8
2022-12-11T01:44:08.906Z,95.6
2022-12-11T01:45:09.295Z,95.7
2022-12-11T01:47:08.911Z,96.3
2022-12-11T01:48:08.916Z,96.4
2022-12-11T01:49:08.918Z,96.8
2022-12-11T01:51:08.900Z,96.1
2022-12-11T01:52:08.905Z,95.6
2022-12-11T01:53:08.910Z,94.5
2022-12-11T01:55:09.270Z,94.7
2022-12-11T01:56:08.919Z,94.8
2022-12-11T01:57:08.918Z,95.2
2022-12-11T01:58:08.903Z,95.8
2022-12-11T01:59:08.906Z,95.5
2022-12-11T02:00:08.905Z,95.2
2022-12-11T02:01:08.947Z,95.1
2022-12-11T02:02:08.970Z,95.1
2022-12-11T02:05:09.218Z,95.2
2022-12-11T02:06:08.927Z,95.6
2022-12-11T02:08:09.012Z,95.3
2022-12-11T02:09:08.907Z,95.2
2022-12-11T02:10:08.906Z,95.2
2022-12-11T02:11:08.903Z,95.2
2022-12-11T02:13:08.905Z,94.9
2022-12-11T02:14:08.905Z,95.3
2022-12-11T02:16:08.993Z,95.7
2022-12-11T02:17:08.907Z,96
2022-12-11T02:18:08.907Z,96.2
2022-12-11T02:19:08.914Z,95.8
2022-12-11T02:20:08.900Z,95.4
2022-12-11T02:21:08.903Z,95.4
2022-12-11T02:22:08.924Z,94.8
2022-12-11T02:23:08.989Z,94.4
2022-12-11T02:26:08.901Z,95.1
2022-12-11T02:27:08.907Z,94.9
2022-12-11T02:30:08.907Z,95.2
2022-12-11T02:31:08.942Z,94.5
2022-12-11T02:32:08.895Z,94
2022-12-11T02:34:08.903Z,94.1
2022-12-11T02:35:09.243Z,94.5
2022-12-11T02:39:08.904Z,94.9
2022-12-11T02:41:08.906Z,94.4
2022-12-11T02:42:08.949Z,94.8
2022-12-11T02:43:08.894Z,94.3
2022-12-11T02:44:08.905Z,94.2
2022-12-11T02:47:08.948Z,94.5
2022-12-11T02:48:08.920Z,94.5
2022-12-11T02:50:08.897Z,94.4
2022-12-11T02:51:08.900Z,94.4
2022-12-11T02:52:08.929Z,94.5
2022-12-11T02:53:08.928Z,94.3
2022-12-11T02:54:08.901Z,94.2
2022-12-11T02:55:09.349Z,93.9
2022-12-11T02:56:08.908Z,94.4
2022-12-11T02:58:08.900Z,94.6
2022-12-11T02:59:08.903Z,94.4
2022-12-11T03:00:08.907Z,94.8
2022-12-11T03:01:08.912Z,94.5
2022-12-11T03:03:08.917Z,95.1
2022-12-11T03:04:08.991Z,95.2
2022-12-11T03:08:08.958Z,94.5
2022-12-11T03:09:08.905Z,94.5
2022-12-11T03:10:08.901Z,95.2
2022-12-11T03:11:08.974Z,95.7
2022-12-11T03:12:08.906Z,95.8
2022-12-11T03:13:08.906Z,96
2022-12-11T03:16:08.944Z,95.1
2022-12-11T03:17:08.902Z,94.8
2022-12-11T03:18:08.899Z,95
2022-12-11T03:19:08.903Z,95.2
2022-12-11T03:20:08.904Z,95.3
2022-12-11T03:21:08.899Z,95.9
2022-12-11T03:22:08.894Z,96.1
2022-12-11T03:23:08.900Z,96.4
2022-12-11T03:24:08.935Z,95.9
2022-12-11T03:25:09.028Z,96.3
2022-12-11T03:27:11.293Z,96.6
2022-12-11T03:30:08.902Z,96.3
2022-12-11T03:31:09.087Z,95.9
2022-12-11T03:32:08.897Z,95.9
2022-12-11T03:33:09.690Z,95.6
2022-12-11T03:34:08.894Z,95.4
2022-12-11T03:35:08.903Z,94.7
2022-12-11T03:37:08.898Z,95
2022-12-11T03:38:08.893Z,95.2
2022-12-11T03:39:08.899Z,94.4
2022-12-11T03:41:08.911Z,95.4
2022-12-11T03:42:08.898Z,95.4
2022-12-11T03:43:08.900Z,95.3
2022-12-11T03:44:08.894Z,95.5
2022-12-11T03:45:09.312Z,95.5
2022-12-11T03:46:08.948Z,95.2
2022-12-11T03:48:08.889Z,95.3
2022-12-11T03:50:08.903Z,94.2
2022-12-11T03:51:08.937Z,94
2022-12-11T03:52:08.893Z,94.3
2022-12-11T03:55:09.307Z,94.9
2022-12-11T03:56:08.924Z,94.8
2022-12-11T03:59:08.894Z,93.7
2022-12-11T04:00:08.908Z,94.1
2022-12-11T04:01:08.893Z,94.2
2022-12-11T04:02:08.944Z,94.8
2022-12-11T04:03:12.876Z,94.9
2022-12-11T04:04:08.921Z,95.5
2022-12-11T04:05:09.431Z,95.9
2022-12-11T04:06:08.911Z,95.1
2022-12-11T04:07:08.895Z,95.4
2022-12-11T04:09:08.898Z,96
2022-12-11T04:11:08.896Z,96
2022-12-11T04:13:08.889Z,96.2
2022-12-11T04:14:08.900Z,95.4
2022-12-11T04:15:09.220Z,95.3
2022-12-11T04:16:08.987Z,95.4
2022-12-11T04:17:08.920Z,95.2
2022-12-11T04:19:08.888Z,95.3
2022-12-11T04:20:08.901Z,95.2
2022-12-11T04:23:08.900Z,95.5
2022-12-11T04:24:08.897Z,95.5
2022-12-11T04:25:09.192Z,95.1
2022-12-11T04:27:08.894Z,95.3
2022-12-11T04:28:08.913Z,95.4
2022-12-11T04:30:08.898Z,95.6
2022-12-11T04:33:08.892Z,95.2
2022-12-11T04:34:09.491Z,95
2022-12-11T04:35:09.132Z,94.8
2022-12-11T04:36:08.893Z,95.5
2022-12-11T04:37:08.893Z,96
2022-12-11T04:38:08.892Z,95.5
2022-12-11T04:41:08.893Z,95.1
2022-12-11T04:42:08.913Z,94.9
2022-12-11T04:43:08.895Z,94.8
2022-12-11T04:44:08.898Z,95.2
2022-12-11T04:45:09.253Z,95.7
2022-12-11T04:46:08.925Z,95.9
2022-12-11T04:48:08.897Z,95.2
2022-12-11T04:49:08.892Z,95.6
2022-12-11T04:50:08.975Z,95.1
2022-12-11T04:53:08.889Z,94.9
2022-12-11T04:54:08.896Z,95.5
2022-12-11T04:55:09.290Z,96.2
2022-12-11T04:56:08.905Z,96.5
2022-12-11T04:58:08.897Z,95.2
2022-12-11T04:59:08.897Z,95.1
2022-12-11T05:01:08.893Z,94.7
2022-12-11T05:02:08.890Z,95.2
2022-12-11T05:03:08.931Z,95.6
2022-12-11T05:04:08.898Z,96.2
2022-12-11T05:05:09.154Z,96.2
2022-12-11T05:07:08.891Z,95.5
2022-12-11T05:08:08.945Z,95.6
2022-12-11T05:09:08.900Z,95.6
2022-12-11T05:10:08.887Z,95
2022-12-11T05:11:08.891Z,95.1
2022-12-11T05:12:08.892Z,94.8
2022-12-11T05:14:08.893Z,95
2022-12-11T05:15:09.259Z,94.4
2022-12-11T05:16:08.940Z,94.3
2022-12-11T05:18:08.894Z,95.3
2022-12-11T05:20:08.884Z,95.3
2022-12-11T05:22:08.892Z,95.6
2022-12-11T05:23:08.885Z,95.2
2022-12-11T05:24:08.889Z,94.8
2022-12-11T05:25:09.325Z,94.6
2022-12-11T05:28:08.917Z,94.8
2022-12-11T05:29:08.893Z,93.6
2022-12-11T05:31:08.967Z,93.2
2022-12-11T05:32:08.890Z,93
2022-12-11T05:33:08.889Z,92.9
2022-12-11T05:34:08.908Z,92.8
2022-12-11T05:35:09.040Z,92.2
2022-12-11T05:37:08.884Z,92.2
2022-12-11T05:42:08.886Z,92.1
2022-12-11T05:43:08.892Z,92.1
2022-12-11T05:44:08.898Z,91.5
2022-12-11T05:45:09.096Z,91.7
2022-12-11T05:46:08.951Z,92.8
2022-12-11T05:48:08.897Z,93.2
2022-12-11T05:49:08.901Z,93.2
2022-12-11T05:50:08.892Z,93.7
2022-12-11T05:53:08.892Z,93
2022-12-11T05:54:08.895Z,93.3
2022-12-11T05:55:09.259Z,94.1
2022-12-11T05:57:08.881Z,93.5
2022-12-11T05:58:08.896Z,93.5
2022-12-11T05:59:08.923Z,93.3
2022-12-11T06:01:08.896Z,91.9
2022-12-11T06:02:09.020Z,91.9
2022-12-11T06:03:08.956Z,92.3
2022-12-11T06:04:08.886Z,92.1
2022-12-11T06:05:09.294Z,92.2
2022-12-11T06:06:08.887Z,91.6
2022-12-11T06:09:08.963Z,91.9
2022-12-11T06:11:08.891Z,91.4
2022-12-11T06:14:08.931Z,91.7
2022-12-11T06:15:09.244Z,91.4
2022-12-11T06:16:08.981Z,92.1
2022-12-11T06:17:08.904Z,92.2
2022-12-11T06:19:08.894Z,92.5
2022-12-11T06:22:08.916Z,93.7
2022-12-11T06:23:08.886Z,94.4
2022-12-11T06:24:08.962Z,94.6
2022-12-11T06:25:09.225Z,94.2
2022-12-11T06:26:08.885Z,93.4
2022-12-11T06:27:08.892Z,93.2
2022-12-11T06:29:12.478Z,92.9
2022-12-11T06:30:08.921Z,92.6
2022-12-11T06:32:08.899Z,92.7
2022-12-11T06:33:08.889Z,92.3
2022-12-11T06:34:08.884Z,92.4
2022-12-11T06:35:09.081Z,92.7
2022-12-11T06:36:08.891Z,92.3
2022-12-11T06:38:08.899Z,92.7
2022-12-11T06:40:08.892Z,93.4
2022-12-11T06:41:08.885Z,94.5
2022-12-11T06:42:08.886Z,95.2
2022-12-11T06:44:08.915Z,95.4
2022-12-11T06:46:08.965Z,95.4
2022-12-11T06:47:08.892Z,95.3
2022-12-11T06:49:08.891Z,95.2
2022-12-11T06:50:08.917Z,94.8
2022-12-11T06:51:08.927Z,94.3
2022-12-11T06:53:08.880Z,94.1
2022-12-11T06:54:08.881Z,94.2
2022-12-11T06:55:09.224Z,94.4
2022-12-11T06:56:08.882Z,94.8
2022-12-11T06:59:08.887Z,94.2
2022-12-11T07:00:08.892Z,95.1
2022-12-11T07:01:09.068Z,95.4
2022-12-11T07:03:08.885Z,94.6
2022-12-11T07:04:08.880Z,94.1
2022-12-11T07:05:09.315Z,94.1
2022-12-11T07:08:08.974Z,95
2022-12-11T07:09:08.888Z,95.8
2022-12-11T07:10:08.974Z,95.6
2022-12-11T07:11:08.893Z,95.8
2022-12-11T07:12:08.878Z,96.2
2022-12-11T07:13:08.921Z,96.4
2022-12-11T07:14:08.876Z,96.7
2022-12-11T07:15:09.095Z,96.8
2022-12-11T07:18:08.886Z,96.3
2022-12-11T07:20:08.882Z,96.3
2022-12-11T07:21:08.882Z,95.8
2022-12-11T07:22:08.910Z,96.2
2022-12-11T07:24:08.877Z,96.6
2022-12-11T07:25:09.129Z,96.4
2022-12-11T07:26:08.884Z,96.1
2022-12-11T07:27:08.888Z,95.9
2022-12-11T07:28:10.143Z,95.8
2022-12-11T07:29:08.886Z,96.2
2022-12-11T07:30:08.885Z,97
2022-12-11T07:31:08.881Z,97.5
2022-12-11T07:32:09.022Z,97.1
2022-12-11T07:33:08.876Z,96.9
2022-12-11T07:34:08.879Z,97
2022-12-11T07:35:09.172Z,96.7
2022-12-11T07:36:08.882Z,96.4
2022-12-11T07:38:08.874Z,96.5
2022-12-11T07:39:08.885Z,96.7
2022-12-11T07:40:08.885Z,96.4
2022-12-11T07:41:08.880Z,96.2
2022-12-11T07:43:08.951Z,96.1
2022-12-11T07:46:08.934Z,97.4
2022-12-11T07:47:08.877Z,97.5
2022-12-11T07:48:08.883Z,97.2
2022-12-11T07:49:08.882Z,96.3
2022-12-11T07:50:08.889Z,95.6
2022-12-11T07:51:08.880Z,95.9
2022-12-11T07:52:08.880Z,96.5
2022-12-11T07:53:08.877Z,96.8
2022-12-11T07:54:08.877Z,96.8
2022-12-11T07:55:09.166Z,96.3
2022-12-11T07:57:13.919Z,96.1
2022-12-11T07:59:08.875Z,96.2
2022-12-11T08:00:08.881Z,95.8
2022-12-11T08:02:08.996Z,96.5
2022-12-11T08:04:08.879Z,96.2
2022-12-11T08:05:09.089Z,96.2
2022-12-11T08:07:08.923Z,97.3
2022-12-11T08:09:08.878Z,96.5
2022-12-11T08:10:08.894Z,96.8
2022-12-11T08:11:08.875Z,96.9
2022-12-11T08:12:08.948Z,97.3
2022-12-11T08:13:08.884Z,97
2022-12-11T08:14:08.883Z,97.2
2022-12-11T08:15:09.224Z,97
2022-12-11T08:16:08.885Z,97.3
2022-12-11T08:17:08.892Z,97.4
2022-12-11T08:18:08.879Z,97.9
2022-12-11T08:20:08.876Z,97.3
2022-12-11T08:21:08.877Z,97.2
2022-12-11T08:22:08.870Z,96.7
2022-12-11T08:23:08.885Z,96.1
2022-12-11T08:25:09.241Z,95.2
2022-12-11T08:26:08.881Z,95.5
2022-12-11T08:28:08.877Z,96.3
2022-12-11T08:30:08.875Z,96.3
2022-12-11T08:31:08.940Z,96.5
2022-12-11T08:32:12.263Z,96.9
2022-12-11T08:33:08.876Z,97.2
2022-12-11T08:34:08.909Z,95.9
2022-12-11T08:36:08.889Z,95.5
2022-12-11T08:37:09.029Z,95.4
2022-12-11T08:38:08.868Z,95.4
2022-12-11T08:39:08.883Z,95.7
2022-12-11T08:41:08.872Z,96.5
2022-12-11T08:42:08.868Z,97.2
2022-12-11T08:43:08.871Z,97.5
2022-12-11T08:45:09.091Z,96.8
2022-12-11T08:46:08.936Z,97.2
2022-12-11T08:47:08.878Z,96.9
2022-12-11T08:49:08.872Z,97.2
2022-12-11T08:51:08.874Z,96.5
2022-12-11T08:53:08.880Z,97
2022-12-11T08:55:09.127Z,97.7
2022-12-11T08:56:08.878Z,97.7
2022-12-11T08:57:08.887Z,97.4
2022-12-11T08:58:08.874Z,97.4
2022-12-11T08:59:08.879Z,97.1
2022-12-11T09:00:08.878Z,96.2
2022-12-11T09:02:08.942Z,96.3
2022-12-11T09:03:12.775Z,96.4
2022-12-11T09:04:08.870Z,96.2
2022-12-11T09:05:09.042Z,96.6
2022-12-11T09:06:08.881Z,96.9
2022-12-11T09:08:08.952Z,96.7
2022-12-11T09:10:08.879Z,96.2
2022-12-11T09:11:08.876Z,96.1
2022-12-11T09:12:08.869Z,96.3
2022-12-11T09:13:08.875Z,96.8
2022-12-11T09:14:08.879Z,96.9
2022-12-11T09:16:08.911Z,97
2022-12-11T09:18:09.255Z,97.1
2022-12-11T09:19:08.884Z,96.5
2022-12-11T09:20:08.873Z,96.8
2022-12-11T09:21:08.868Z,96.6
2022-12-11T09:23:08.870Z,96
2022-12-11T09:24:08.868Z,95.9
2022-12-11T09:25:09.378Z,95.7
2022-12-11T09:26:08.881Z,95.8
2022-12-11T09:27:08.873Z,95.6
2022-12-11T09:28:08.876Z,95.7
2022-12-11T09:29:08.881Z,95.3
2022-12-11T09:31:08.978Z,95.7
2022-12-11T09:32:08.879Z,95.6
2022-12-11T09:33:08.889Z,95.9
2022-12-11T09:34:08.879Z,96.2
2022-12-11T09:35:09.173Z,96.7
2022-12-11T09:36:08.908Z,96.5
2022-12-11T09:38:08.925Z,95.8
2022-12-11T09:40:08.877Z,95.8
2022-12-11T09:41:08.880Z,95.5
2022-12-11T09:42:08.881Z,96.3
2022-12-11T09:44:08.875Z,95.7
2022-12-11T09:46:08.913Z,94.9
2022-12-11T09:47:08.871Z,95.3
2022-12-11T09:48:08.890Z,95.8
2022-12-11T09:49:08.875Z,95.4
2022-12-11T09:50:08.874Z,95.3
2022-12-11T09:52:08.866Z,94.4
2022-12-11T09:54:08.869Z,93.1
2022-12-11T09:55:09.047Z,93
2022-12-11T09:56:08.868Z,93.1
2022-12-11T09:57:08.880Z,92.9
2022-12-11T09:58:08.882Z,93.2
2022-12-11T09:59:08.879Z,93.7
2022-12-11T10:02:08.879Z,94.1
2022-12-11T10:03:08.870Z,94
2022-12-11T10:05:09.093Z,93.5
2022-12-11T10:07:08.906Z,93.6
2022-12-11T10:08:08.895Z,93.5
2022-12-11T10:09:08.872Z,93.4
2022-12-11T10:10:08.942Z,93.9
2022-12-11T10:11:08.872Z,94
2022-12-11T10:13:08.883Z,93.2
2022-12-11T10:14:08.898Z,93
2022-12-11T10:15:10.077Z,92.7
2022-12-11T10:16:08.977Z,92.3
2022-12-11T10:17:08.874Z,92.2
2022-12-11T10:18:08.872Z,92.1
2022-12-11T10:19:08.869Z,92
2022-12-11T10:20:08.865Z,91.7
2022-12-11T10:22:08.864Z,91.7
2022-12-11T10:24:08.876Z,91.5
2022-12-11T10:26:08.870Z,90.2
2022-12-11T10:27:08.868Z,90.2
2022-12-11T10:28:08.869Z,89.9
2022-12-11T10:29:08.873Z,90.1
2022-12-11T10:30:08.872Z,89.4
2022-12-11T10:32:08.866Z,89.8
2022-12-11T10:33:08.877Z,89.8
2022-12-11T10:34:08.874Z,90.3
2022-12-11T10:35:08.995Z,90.6
2022-12-11T10:36:08.880Z,90.2
2022-12-11T10:37:08.870Z,89.9
2022-12-11T10:38:08.995Z,90.5
2022-12-11T10:39:08.869Z,90.7
2022-12-11T10:40:08.937Z,91
2022-12-11T10:41:08.884Z,91.9
2022-12-11T10:42:08.874Z,92.8
2022-12-11T10:45:09.033Z,93.3
2022-12-11T10:46:08.923Z,93.3
2022-12-11T10:47:08.863Z,93.2
2022-12-11T10:48:08.870Z,93
2022-12-11T10:49:08.861Z,93.4
2022-12-11T10:50:08.871Z,94
2022-12-11T10:52:08.867Z,93.6
2022-12-11T10:53:08.911Z,93.3
2022-12-11T10:54:08.868Z,93.2
2022-12-11T10:55:09.041Z,93.2
2022-12-11T10:56:08.874Z,92.6
2022-12-11T10:57:08.875Z,92.5
2022-12-11T10:58:08.864Z,92.4
2022-12-11T11:02:08.864Z,91.9
2022-12-11T11:03:08.963Z,91.3
2022-12-11T11:05:09.080Z,91.5
2022-12-11T11:06:08.866Z,91.9
2022-12-11T11:07:08.857Z,91.7
2022-12-11T11:08:08.902Z,91.5
2022-12-11T11:09:08.910Z,90.8
2022-12-11T11:10:08.866Z,90.3
2022-12-11T11:11:09.032Z,90.1
2022-12-11T11:13:08.878Z,91
2022-12-11T11:14:08.878Z,91.1
2022-12-11T11:15:09.032Z,90.6
2022-12-11T11:16:08.907Z,90.6
2022-12-11T11:17:08.867Z,90.9
2022-12-11T11:18:08.896Z,91.1
2022-12-11T11:19:08.862Z,91.5
2022-12-11T11:21:08.867Z,90.6
2022-12-11T11:22:08.867Z,90.8
2022-12-11T11:23:09.645Z,90.6
2022-12-11T11:24:08.878Z,90.9
2022-12-11T11:26:08.874Z,91.5
2022-12-11T11:27:13.508Z,91.5
2022-12-11T11:28:08.868Z,91.6
2022-12-11T11:29:08.870Z,91.3
2022-12-11T11:31:08.881Z,90.8
2022-12-11T11:32:08.859Z,90.1
2022-12-11T11:34:08.865Z,90
2022-12-11T11:36:08.862Z,91.1
2022-12-11T11:37:08.864Z,90.8
2022-12-11T11:38:08.882Z,91.4
2022-12-11T11:40:08.908Z,91.6
2022-12-11T11:41:13.094Z,91.4
2022-12-11T11:42:08.858Z,91.3
2022-12-11T11:43:08.981Z,91.2
2022-12-11T11:44:08.867Z,91.5
2022-12-11T11:45:09.197Z,91.6
2022-12-11T11:47:08.901Z,91.8
2022-12-11T11:48:11.459Z,91.6
2022-12-11T11:49:08.854Z,91.4
2022-12-11T11:50:08.885Z,91.4
2022-12-11T11:53:08.857Z,90.4
2022-12-11T11:55:09.101Z,90
2022-12-11T11:57:08.863Z,89.4
2022-12-11T11:58:08.856Z,89.4
2022-12-11T11:59:08.860Z,89.3
2022-12-11T12:01:08.873Z,88.1
2022-12-11T12:02:08.900Z,88.2
2022-12-11T12:03:08.897Z,88.9
2022-12-11T12:04:08.859Z,89.5
2022-12-11T12:05:09.094Z,89.8
2022-12-11T12:08:08.895Z,90
2022-12-11T12:09:08.907Z,89.4
2022-12-11T12:10:08.896Z,89.2
2022-12-11T12:11:08.915Z,89.1
2022-12-11T12:12:08.861Z,88.8
2022-12-11T12:13:30.048Z,89
2022-12-11T12:14:28.790Z,89.3
2022-12-11T12:16:23.126Z,88.4
2022-12-11T12:19:08.873Z,89.1
2022-12-11T12:20:08.864Z,89.1
2022-12-11T12:21:08.868Z,88.4
2022-12-11T12:22:08.865Z,88.2
2022-12-11T12:23:08.879Z,87.7
2022-12-11T12:24:08.853Z,87.7
2022-12-11T12:25:09.265Z,87.5
2022-12-11T12:26:08.851Z,87.2
2022-12-11T12:27:29.140Z,87.1
2022-12-11T12:29:08.932Z,88.1
2022-12-11T12:30:08.860Z,87.7
2022-12-11T12:31:08.906Z,87.1
2022-12-11T12:32:08.860Z,87.6
2022-12-11T12:33:08.869Z,87.6
2022-12-11T12:34:08.858Z,86.5
2022-12-11T12:35:09.070Z,87.1
2022-12-11T12:37:08.857Z,86.9
2022-12-11T12:39:08.869Z,86.7
2022-12-11T12:40:08.857Z,86.6
2022-12-11T12:41:08.860Z,86
2022-12-11T12:44:08.925Z,86.4
2022-12-11T12:45:09.150Z,85.8
2022-12-11T12:46:08.881Z,86
2022-12-11T12:47:08.855Z,86
2022-12-11T12:49:08.860Z,85.9
2022-12-11T12:50:08.901Z,85.9
2022-12-11T12:51:08.853Z,86.2
2022-12-11T12:52:08.854Z,85.9
2022-12-11T12:53:08.860Z,85.9
2022-12-11T12:55:09.197Z,87
2022-12-11T12:56:08.866Z,87.2
2022-12-11T12:57:08.856Z,85.6
2022-12-11T12:58:08.862Z,86.2
2022-12-11T12:59:08.856Z,86.1
2022-12-11T13:00:13.066Z,86
2022-12-11T13:01:08.877Z,85.7
2022-12-11T13:03:08.859Z,85.8
2022-12-11T13:04:26.288Z,85.7
2022-12-11T13:05:09.120Z,85.7
2022-12-11T13:06:08.857Z,86.6
2022-12-11T13:07:08.854Z,87.2
2022-12-11T13:08:08.872Z,87.3
2022-12-11T13:09:08.854Z,86.7
2022-12-11T13:10:09.021Z,86.3
2022-12-11T13:11:08.854Z,86.3
2022-12-11T13:12:08.857Z,86.2
2022-12-11T13:13:08.881Z,86.2
2022-12-11T13:14:08.853Z,86.5
2022-12-11T13:16:08.880Z,85.7
2022-12-11T13:18:08.868Z,86.4
2022-12-11T13:19:08.857Z,86.1
2022-12-11T13:20:08.865Z,86
2022-12-11T13:21:09.035Z,86.4
2022-12-11T13:26:08.854Z,86.6
2022-12-11T13:27:08.878Z,87
2022-12-11T13:31:08.853Z,86.3
2022-12-11T13:32:08.856Z,86
2022-12-11T13:33:08.850Z,85.9
2022-12-11T13:34:08.900Z,85.7
2022-12-11T13:35:09.129Z,85.9
2022-12-11T13:37:08.860Z,85.5
2022-12-11T13:38:08.867Z,85.6
2022-12-11T13:39:08.877Z,84.8
2022-12-11T13:40:08.866Z,84.2
2022-12-11T13:42:11.870Z,85.5
2022-12-11T13:43:08.860Z,85.4
2022-12-11T13:45:09.004Z,84.2
2022-12-11T13:46:08.893Z,84.4
2022-12-11T13:47:08.861Z,84.6
2022-12-11T13:48:12.783Z,85.1
2022-12-11T13:50:08.876Z,85.1
2022-12-11T13:51:08.861Z,84.7
2022-12-11T13:52:08.869Z,84.7
2022-12-11T13:53:08.854Z,85.2
2022-12-11T13:54:12.652Z,85.2
2022-12-11T13:55:08.994Z,85.1
2022-12-11T13:56:08.862Z,86
2022-12-11T13:59:08.855Z,86.2
2022-12-11T14:00:11.783Z,86.7
2022-12-11T14:01:08.888Z,87
2022-12-11T14:02:08.871Z,86.2
2022-12-11T14:03:08.861Z,85.4
2022-12-11T14:05:09.040Z,85.4
2022-12-11T14:06:13.271Z,85.8
2022-12-11T14:07:08.890Z,85.3
2022-12-11T14:08:08.898Z,85
2022-12-11T14:09:08.857Z,84
2022-12-11T14:11:08.859Z,83.9
2022-12-11T14:12:08.859Z,84
2022-12-11T14:13:08.857Z,84
2022-12-11T14:14:08.851Z,83.6
2022-12-11T14:15:09.166Z,83.7
2022-12-11T14:16:08.905Z,83
2022-12-11T14:17:08.864Z,83.4
2022-12-11T14:20:09.009Z,82.9
2022-12-11T14:21:08.875Z,81
2022-12-11T14:24:08.853Z,77.8
2022-12-11T14:25:13.350Z,77.7
2022-12-11T14:26:08.871Z,77.2
2022-12-11T14:27:08.861Z,76.7
2022-12-11T14:28:08.870Z,76.9
2022-12-11T14:29:08.855Z,77.5
2022-12-11T14:30:09.199Z,77.4
2022-12-11T14:32:08.857Z,77.2
2022-12-11T14:33:08.855Z,78.9
2022-12-11T14:34:08.858Z,78.8
2022-12-11T14:35:06.483Z,78.9
2022-12-11T14:36:08.861Z,78.7
2022-12-11T14:37:08.851Z,79.7
2022-12-11T14:38:08.863Z,79.5
2022-12-11T14:40:09.153Z,79.9
2022-12-11T14:41:08.860Z,79.8
2022-12-11T14:42:08.848Z,80.5
2022-12-11T14:43:08.857Z,80.3
2022-12-11T14:45:08.868Z,79.9
2022-12-11T14:46:08.948Z,80.2
2022-12-11T14:48:08.864Z,80.4
2022-12-11T14:49:08.850Z,79.9
2022-12-11T14:50:09.121Z,80.6
2022-12-11T14:51:08.860Z,81.1
2022-12-11T14:54:09.245Z,81.6
2022-12-11T14:55:08.858Z,80.5
2022-12-11T14:56:08.855Z,80.6
2022-12-11T14:57:08.946Z,80.4
2022-12-11T14:58:08.850Z,81.1
2022-12-11T14:59:08.852Z,81.3
2022-12-11T15:01:08.855Z,81.8
2022-12-11T15:02:09.050Z,81.7
2022-12-11T15:04:08.856Z,81.6
2022-12-11T15:05:08.854Z,81.9
2022-12-11T15:06:08.863Z,82.2
2022-12-11T15:07:08.865Z,82.2
2022-12-11T15:08:08.892Z,81.6
2022-12-11T15:09:08.849Z,81.7
2022-12-11T15:10:08.942Z,81.6
2022-12-11T15:11:08.865Z,81.6
2022-12-11T15:12:08.920Z,81.6
2022-12-11T15:15:08.855Z,81.9
2022-12-11T15:16:08.860Z,81.5
2022-12-11T15:17:09.012Z,81.9
2022-12-11T15:18:08.863Z,81.8
2022-12-11T15:19:08.856Z,81.9
2022-12-11T15:20:09.050Z,81.8
2022-12-11T15:23:08.987Z,81.4
2022-12-11T15:24:08.866Z,81.7
2022-12-11T15:25:08.856Z,81.8
2022-12-11T15:26:08.893Z,82.4
2022-12-11T15:27:08.849Z,83
2022-12-11T15:28:08.851Z,83.2
2022-12-11T15:30:09.052Z,83.6
2022-12-11T15:31:09.021Z,83.1
2022-12-11T15:32:08.859Z,83.2
2022-12-11T15:33:08.853Z,82.7
2022-12-11T15:36:08.850Z,82.7
2022-12-11T15:37:08.850Z,83
2022-12-11T15:38:08.855Z,82.5
2022-12-11T15:40:08.901Z,82.7
2022-12-11T15:41:08.851Z,83.3
2022-12-11T15:43:08.857Z,83.8
2022-12-11T15:44:08.850Z,84.4
2022-12-11T15:45:08.973Z,84.4
2022-12-11T15:46:08.915Z,84.6
2022-12-11T15:48:08.876Z,84.7
2022-12-11T15:49:08.874Z,84.4
2022-12-11T15:50:08.936Z,84.6
2022-12-11T15:51:08.859Z,84.6
2022-12-11T15:52:08.856Z,84.5
2022-12-11T15:53:08.858Z,84.6
2022-12-11T15:54:08.845Z,84.8
2022-12-11T15:55:08.979Z,84.8
2022-12-11T15:56:08.857Z,85.3
2022-12-11T15:57:08.852Z,85.5
2022-12-11T15:58:08.855Z,85.1
2022-12-11T15:59:08.859Z,85.2
2022-12-11T16:02:08.897Z,84.7
2022-12-11T16:03:08.856Z,84.2
2022-12-11T16:04:08.857Z,83.9
2022-12-11T16:05:09.030Z,84.2
2022-12-11T16:06:08.854Z,84.6
2022-12-11T16:07:08.854Z,84.9
2022-12-11T16:10:08.861Z,84.5
2022-12-11T16:11:08.860Z,84.4
2022-12-11T16:12:08.858Z,84.3
2022-12-11T16:13:08.857Z,85
2022-12-11T16:14:08.881Z,86
2022-12-11T16:16:08.916Z,85.7
2022-12-11T16:17:08.855Z,85.7
2022-12-11T16:18:08.854Z,85.7
2022-12-11T16:19:08.881Z,85.1
2022-12-11T16:20:08.866Z,85.1
2022-12-11T16:22:01.942Z,85
2022-12-11T16:23:08.854Z,84
2022-12-11T16:24:08.851Z,84.2
2022-12-11T16:25:09.031Z,84.3
2022-12-11T16:27:08.846Z,84.5
2022-12-11T16:28:08.854Z,84.6
2022-12-11T16:31:08.901Z,84.1
2022-12-11T16:32:08.859Z,84.6
2022-12-11T16:33:12.427Z,84.8
2022-12-11T16:35:09.131Z,84.5
2022-12-11T16:36:08.845Z,84.5
2022-12-11T16:37:08.850Z,83.9
2022-12-11T16:38:08.849Z,83.3
2022-12-11T16:39:08.853Z,83.3
2022-12-11T16:40:08.851Z,83.9
2022-12-11T16:41:08.851Z,83.4
2022-12-11T16:42:08.842Z,82.9
2022-12-11T16:44:08.851Z,82.5
2022-12-11T16:45:09.058Z,82.4
2022-12-11T16:46:08.878Z,83
2022-12-11T16:47:08.844Z,83.3
2022-12-11T16:48:08.854Z,82.3
2022-12-11T16:49:08.880Z,81.6
2022-12-11T16:51:08.848Z,82.4
2022-12-11T16:52:08.846Z,82.8
2022-12-11T16:53:08.859Z,83.2
2022-12-11T16:55:09.132Z,82.3
2022-12-11T16:56:08.883Z,83
2022-12-11T16:57:08.860Z,83
2022-12-11T16:59:08.864Z,82.2
2022-12-11T17:00:08.854Z,82.2
2022-12-11T17:01:08.882Z,82.7
2022-12-11T17:04:08.884Z,82.5
2022-12-11T17:05:09.083Z,82
2022-12-11T17:07:08.851Z,81.6
2022-12-11T17:08:08.882Z,82.5
2022-12-11T17:09:08.844Z,83.5
2022-12-11T17:10:08.858Z,82.9
2022-12-11T17:11:08.854Z,82.8
2022-12-11T17:12:08.862Z,82.7
2022-12-11T17:13:08.854Z,82.3
2022-12-11T17:14:08.863Z,82.7
2022-12-11T17:18:08.857Z,82.1
2022-12-11T17:21:08.851Z,83.2
2022-12-11T17:22:08.884Z,83.8
2022-12-11T17:24:08.851Z,83.6
2022-12-11T17:25:08.954Z,84.1
2022-12-11T17:26:08.870Z,84.3
2022-12-11T17:30:08.923Z,82.8
2022-12-11T17:31:08.865Z,82.5
2022-12-11T17:32:08.884Z,82.6
2022-12-11T17:33:08.851Z,82
2022-12-11T17:34:08.847Z,82.4
2022-12-11T17:35:09.000Z,82.4
2022-12-11T17:37:08.859Z,81.8
2022-12-11T17:38:08.854Z,81.9
2022-12-11T17:39:08.853Z,82.3
2022-12-11T17:41:08.848Z,82.8
2022-12-11T17:42:08.854Z,82.9
2022-12-11T17:43:08.847Z,81.3
2022-12-11T17:45:09.211Z,82.2
2022-12-11T17:47:11.244Z,81.9
2022-12-11T17:49:08.851Z,82.2
2022-12-11T17:50:08.868Z,82.2
2022-12-11T17:51:08.855Z,82.2
2022-12-11T17:52:08.891Z,82
2022-12-11T17:56:08.850Z,81.3
2022-12-11T17:57:08.861Z,80.8
2022-12-11T17:58:08.854Z,80.4